createdAt,value
2023-06-29T00:00:11.774Z,2328.00
2023-06-29T00:01:11.829Z,2336.00
2023-06-29T00:02:11.776Z,2325.00
2023-06-29T00:03:11.909Z,2310.00
2023-06-29T00:04:11.859Z,2313.00
2023-06-29T00:05:11.902Z,2325.00
2023-06-29T00:06:11.957Z,2314.00
2023-06-29T00:07:12.104Z,2302.00
2023-06-29T00:08:12.031Z,2300.00
2023-06-29T00:09:12.069Z,2306.00
2023-06-29T00:10:12.129Z,2299.00
2023-06-29T00:11:12.149Z,2302.00
2023-06-29T00:12:12.187Z,2299.00
2023-06-29T00:13:12.224Z,2294.00
2023-06-29T00:14:12.863Z,2295.00
2023-06-29T00:15:12.324Z,2297.00
2023-06-29T00:16:12.355Z,2299.00
2023-06-29T00:17:12.376Z,2306.00
2023-06-29T00:18:12.435Z,2301.00
2023-06-29T00:19:12.451Z,2289.00
2023-06-29T00:20:12.615Z,2292.00
2023-06-29T00:21:12.543Z,2291.00
2023-06-29T00:22:12.576Z,2284.00
2023-06-29T00:23:12.614Z,2282.00
2023-06-29T00:24:12.666Z,2279.00
2023-06-29T00:25:12.708Z,2289.00
2023-06-29T00:26:12.744Z,2272.00
2023-06-29T00:27:13.728Z,2272.00
2023-06-29T00:28:12.722Z,2274.00
2023-06-29T00:29:12.824Z,2274.00
2023-06-29T00:30:12.712Z,2261.00
2023-06-29T00:31:12.740Z,2277.00
2023-06-29T00:32:12.683Z,2280.00
2023-06-29T00:33:12.699Z,2279.00
2023-06-29T00:34:12.666Z,2277.00
2023-06-29T00:35:12.662Z,2259.00
2023-06-29T00:36:12.652Z,2252.00
2023-06-29T00:37:12.656Z,2262.00
2023-06-29T00:38:12.649Z,2259.00
2023-06-29T00:39:12.701Z,2258.00
2023-06-29T00:40:12.704Z,2255.00
2023-06-29T00:41:12.767Z,2250.00
2023-06-29T00:42:12.816Z,2263.00
2023-06-29T00:43:12.834Z,2253.00
2023-06-29T00:44:12.878Z,2252.00
2023-06-29T00:45:12.947Z,2255.00
2023-06-29T00:46:12.979Z,2248.00
2023-06-29T00:47:13.005Z,2242.00
2023-06-29T00:48:13.057Z,2243.00
2023-06-29T00:49:13.109Z,2241.00
2023-06-29T00:50:13.155Z,2239.00
2023-06-29T00:51:13.173Z,2246.00
2023-06-29T00:52:13.223Z,2239.00
2023-06-29T00:53:13.281Z,2238.00
2023-06-29T00:54:13.323Z,2227.00
2023-06-29T00:55:13.422Z,2235.00
2023-06-29T00:56:13.413Z,2231.00
2023-06-29T00:57:13.518Z,2215.00
2023-06-29T00:58:13.510Z,2213.00
2023-06-29T00:59:13.549Z,2222.00
2023-06-29T01:00:14.363Z,2217.00
2023-06-29T01:01:13.648Z,2229.00
2023-06-29T01:02:13.676Z,2210.00
2023-06-29T01:03:13.804Z,2208.00
2023-06-29T01:04:13.766Z,2212.00
2023-06-29T01:05:13.829Z,2205.00
2023-06-29T01:06:13.867Z,2220.00
2023-06-29T01:07:13.974Z,2207.00
2023-06-29T01:08:13.963Z,2200.00
2023-06-29T01:09:13.987Z,2210.00
2023-06-29T01:10:14.041Z,2196.00
2023-06-29T01:11:14.072Z,2207.00
2023-06-29T01:12:14.120Z,2205.00
2023-06-29T01:13:14.868Z,2211.00
2023-06-29T01:14:14.195Z,2194.00
2023-06-29T01:15:14.295Z,2195.00
2023-06-29T01:16:14.349Z,2195.00
2023-06-29T01:17:14.336Z,2189.00
2023-06-29T01:18:14.373Z,2182.00
2023-06-29T01:19:14.420Z,2186.00
2023-06-29T01:20:15.429Z,2188.00
2023-06-29T01:21:14.510Z,2178.00
2023-06-29T01:22:14.578Z,2176.00
2023-06-29T01:23:14.602Z,2184.00
2023-06-29T01:24:14.634Z,2184.00
2023-06-29T01:25:14.682Z,2191.00
2023-06-29T01:26:14.736Z,2180.00
2023-06-29T01:27:14.768Z,2168.00
2023-06-29T01:28:14.843Z,2172.00
2023-06-29T01:29:14.925Z,2168.00
2023-06-29T01:30:14.901Z,2174.00
2023-06-29T01:31:15.887Z,2157.00
2023-06-29T01:32:15.003Z,2144.00
2023-06-29T01:33:15.048Z,2169.00
2023-06-29T01:34:15.086Z,2143.00
2023-06-29T01:35:15.144Z,2154.00
2023-06-29T01:36:15.201Z,2147.00
2023-06-29T01:37:15.276Z,2146.00
2023-06-29T01:38:15.291Z,2145.00
2023-06-29T01:39:15.332Z,2144.00
2023-06-29T01:40:15.390Z,2135.00
2023-06-29T01:41:15.427Z,2132.00
2023-06-29T01:42:15.480Z,2152.00
2023-06-29T01:43:15.887Z,2144.00
2023-06-29T01:44:15.574Z,2146.00
2023-06-29T01:45:15.707Z,2137.00
2023-06-29T01:46:15.742Z,2149.00
2023-06-29T01:47:15.722Z,2139.00
2023-06-29T01:48:15.771Z,2126.00
2023-06-29T01:49:15.836Z,2125.00
2023-06-29T01:50:15.906Z,2115.00
2023-06-29T01:51:15.934Z,2116.00
2023-06-29T01:52:15.969Z,2112.00
2023-06-29T01:53:16.010Z,2130.00
2023-06-29T01:54:16.154Z,2121.00
2023-06-29T01:55:16.116Z,2118.00
2023-06-29T01:56:16.156Z,2104.00
2023-06-29T01:57:16.214Z,2120.00
2023-06-29T01:58:16.250Z,2111.00
2023-06-29T01:59:16.302Z,2108.00
2023-06-29T02:00:16.392Z,2106.00
2023-06-29T02:01:16.413Z,2096.00
2023-06-29T02:02:16.465Z,2118.00
2023-06-29T02:03:16.644Z,2101.00
2023-06-29T02:04:16.549Z,2100.00
2023-06-29T02:05:16.596Z,2106.00
2023-06-29T02:06:16.638Z,2094.00
2023-06-29T02:07:16.706Z,2088.00
2023-06-29T02:08:16.748Z,2091.00
2023-06-29T02:09:16.858Z,2098.00
2023-06-29T02:10:16.899Z,2091.00
2023-06-29T02:11:16.877Z,2090.00
2023-06-29T02:12:16.936Z,2082.00
2023-06-29T02:13:17.064Z,2098.00
2023-06-29T02:14:17.008Z,2092.00
2023-06-29T02:15:17.055Z,2078.00
2023-06-29T02:16:17.194Z,2087.00
2023-06-29T02:17:17.145Z,2061.00
2023-06-29T02:18:17.191Z,2080.00
2023-06-29T02:19:17.233Z,2082.00
2023-06-29T02:20:17.284Z,2076.00
2023-06-29T02:21:17.336Z,2077.00
2023-06-29T02:22:17.378Z,2073.00
2023-06-29T02:23:17.426Z,2076.00
2023-06-29T02:24:17.469Z,2061.00
2023-06-29T02:25:17.525Z,2058.00
2023-06-29T02:26:17.570Z,2053.00
2023-06-29T02:27:17.612Z,2064.00
2023-06-29T02:28:17.670Z,2063.00
2023-06-29T02:29:17.707Z,2055.00
2023-06-29T02:30:17.747Z,2047.00
2023-06-29T02:31:17.840Z,2050.00
2023-06-29T02:32:17.854Z,2039.00
2023-06-29T02:33:17.915Z,2057.00
2023-06-29T02:34:17.968Z,2039.00
2023-06-29T02:35:18.025Z,2048.00
2023-06-29T02:36:18.060Z,2046.00
2023-06-29T02:37:18.130Z,2045.00
2023-06-29T02:38:18.166Z,2032.00
2023-06-29T02:39:18.209Z,2029.00
2023-06-29T02:40:18.272Z,2038.00
2023-06-29T02:41:18.316Z,2032.00
2023-06-29T02:42:18.371Z,2028.00
2023-06-29T02:43:18.423Z,2038.00
2023-06-29T02:44:18.464Z,2033.00
2023-06-29T02:45:18.515Z,2035.00
2023-06-29T02:46:18.570Z,2023.00
2023-06-29T02:47:18.626Z,2027.00
2023-06-29T02:48:18.682Z,2025.00
2023-06-29T02:49:18.713Z,2031.00
2023-06-29T02:50:18.763Z,2023.00
2023-06-29T02:51:18.815Z,2017.00
2023-06-29T02:52:18.859Z,2015.00
2023-06-29T02:53:18.904Z,2024.00
2023-06-29T02:54:18.953Z,2007.00
2023-06-29T02:55:19.009Z,2009.00
2023-06-29T02:56:19.054Z,2009.00
2023-06-29T02:57:19.103Z,2008.00
2023-06-29T02:58:19.149Z,2001.00
2023-06-29T02:59:19.199Z,2008.00
2023-06-29T03:00:19.245Z,1990.00
2023-06-29T03:01:19.322Z,2010.00
2023-06-29T03:02:19.897Z,1994.00
2023-06-29T03:03:19.502Z,1999.00
2023-06-29T03:04:19.435Z,1995.00
2023-06-29T03:05:19.506Z,1997.00
2023-06-29T03:06:19.533Z,1999.00
2023-06-29T03:07:19.601Z,2000.00
2023-06-29T03:08:19.623Z,1980.00
2023-06-29T03:09:19.673Z,1980.00
2023-06-29T03:10:19.756Z,1989.00
2023-06-29T03:11:19.776Z,1986.00
2023-06-29T03:12:19.824Z,1986.00
2023-06-29T03:13:19.872Z,1978.00
2023-06-29T03:14:19.930Z,1965.00
2023-06-29T03:15:20.885Z,1976.00
2023-06-29T03:16:20.058Z,1988.00
2023-06-29T03:17:20.093Z,1982.00
2023-06-29T03:18:20.127Z,1960.00
2023-06-29T03:19:20.174Z,1960.00
2023-06-29T03:20:20.224Z,1978.00
2023-06-29T03:21:20.282Z,1960.00
2023-06-29T03:22:20.344Z,1955.00
2023-06-29T03:23:20.388Z,1961.00
2023-06-29T03:24:20.434Z,1968.00
2023-06-29T03:25:20.536Z,1971.00
2023-06-29T03:26:20.538Z,1955.00
2023-06-29T03:27:20.658Z,1971.00
2023-06-29T03:28:20.654Z,1956.00
2023-06-29T03:29:20.710Z,1958.00
2023-06-29T03:30:20.764Z,1941.00
2023-06-29T03:31:20.902Z,1957.00
2023-06-29T03:32:20.869Z,1940.00
2023-06-29T03:33:20.908Z,1952.00
2023-06-29T03:34:20.974Z,1944.00
2023-06-29T03:35:21.019Z,1948.00
2023-06-29T03:36:21.065Z,1949.00
2023-06-29T03:37:21.126Z,1941.00
2023-06-29T03:38:21.179Z,1943.00
2023-06-29T03:39:21.231Z,1940.00
2023-06-29T03:40:21.281Z,1937.00
2023-06-29T03:41:21.339Z,1934.00
2023-06-29T03:42:21.473Z,1939.00
2023-06-29T03:43:21.437Z,1942.00
2023-06-29T03:44:21.494Z,1928.00
2023-06-29T03:45:21.545Z,1927.00
2023-06-29T03:46:21.642Z,1935.00
2023-06-29T03:47:21.689Z,1928.00
2023-06-29T03:48:21.853Z,1931.00
2023-06-29T03:49:21.754Z,1912.00
2023-06-29T03:50:21.811Z,1919.00
2023-06-29T03:51:21.859Z,1917.00
2023-06-29T03:52:21.915Z,1917.00
2023-06-29T03:53:21.972Z,1914.00
2023-06-29T03:54:22.035Z,1916.00
2023-06-29T03:55:22.073Z,1926.00
2023-06-29T03:56:22.069Z,1911.00
2023-06-29T03:57:22.277Z,1923.00
2023-06-29T03:58:22.105Z,1912.00
2023-06-29T03:59:22.113Z,1908.00
2023-06-29T04:00:22.207Z,1913.00
2023-06-29T04:01:22.150Z,1909.00
2023-06-29T04:02:22.232Z,1908.00
2023-06-29T04:03:22.248Z,1908.00
2023-06-29T04:04:22.189Z,1922.00
2023-06-29T04:05:22.225Z,1902.00
2023-06-29T04:06:22.238Z,1899.00
2023-06-29T04:07:22.359Z,1893.00
2023-06-29T04:08:22.276Z,1907.00
2023-06-29T04:09:22.331Z,1905.00
2023-06-29T04:10:22.320Z,1904.00
2023-06-29T04:11:22.340Z,1897.00
2023-06-29T04:12:22.363Z,1900.00
2023-06-29T04:13:22.373Z,1878.00
2023-06-29T04:14:22.383Z,1884.00
2023-06-29T04:15:22.403Z,1892.00
2023-06-29T04:16:22.430Z,1900.00
2023-06-29T04:17:22.479Z,1893.00
2023-06-29T04:18:22.462Z,1879.00
2023-06-29T04:19:22.474Z,1884.00
2023-06-29T04:20:22.509Z,1891.00
2023-06-29T04:21:23.400Z,1879.00
2023-06-29T04:22:23.484Z,1876.00
2023-06-29T04:23:22.549Z,1880.00
2023-06-29T04:24:22.557Z,1880.00
2023-06-29T04:25:22.582Z,1881.00
2023-06-29T04:26:22.608Z,1874.00
2023-06-29T04:27:22.620Z,1877.00
2023-06-29T04:28:22.639Z,1877.00
2023-06-29T04:29:23.396Z,1873.00
2023-06-29T04:30:22.678Z,1869.00
2023-06-29T04:31:22.785Z,1869.00
2023-06-29T04:32:22.740Z,1861.00
2023-06-29T04:33:22.739Z,1876.00
2023-06-29T04:34:22.779Z,1880.00
2023-06-29T04:35:22.757Z,1859.00
2023-06-29T04:36:22.768Z,1865.00
2023-06-29T04:37:22.788Z,1863.00
2023-06-29T04:38:22.803Z,1881.00
2023-06-29T04:39:22.812Z,1869.00
2023-06-29T04:40:22.925Z,1849.00
2023-06-29T04:41:22.853Z,1867.00
2023-06-29T04:42:22.889Z,1855.00
2023-06-29T04:43:22.894Z,1849.00
2023-06-29T04:44:22.926Z,1863.00
2023-06-29T04:45:23.071Z,1848.00
2023-06-29T04:46:22.962Z,1862.00
2023-06-29T04:47:22.979Z,1860.00
2023-06-29T04:48:22.969Z,1840.00
2023-06-29T04:49:23.016Z,1849.00
2023-06-29T04:50:22.993Z,1861.00
2023-06-29T04:51:23.058Z,1836.00
2023-06-29T04:52:23.061Z,1846.00
2023-06-29T04:53:23.043Z,1844.00
2023-06-29T04:54:23.052Z,1849.00
2023-06-29T04:55:23.072Z,1845.00
2023-06-29T04:56:23.133Z,1842.00
2023-06-29T04:57:23.130Z,1850.00
2023-06-29T04:58:23.404Z,1846.00
2023-06-29T04:59:23.150Z,1849.00
2023-06-29T05:00:23.156Z,1840.00
2023-06-29T05:01:23.230Z,1851.00
2023-06-29T05:02:23.277Z,1833.00
2023-06-29T05:03:23.374Z,1844.00
2023-06-29T05:04:23.229Z,1839.00
2023-06-29T05:05:23.252Z,1846.00
2023-06-29T05:06:23.255Z,1836.00
2023-06-29T05:07:23.395Z,1858.00
2023-06-29T05:08:23.296Z,1852.00
2023-06-29T05:09:23.380Z,1843.00
2023-06-29T05:10:23.329Z,1855.00
2023-06-29T05:11:23.897Z,1844.00
2023-06-29T05:12:23.380Z,1851.00
2023-06-29T05:13:23.414Z,1848.00
2023-06-29T05:14:23.494Z,1842.00
2023-06-29T05:15:23.455Z,1841.00
2023-06-29T05:16:23.504Z,1864.00
2023-06-29T05:17:23.567Z,1839.00
2023-06-29T05:18:23.440Z,1827.00
2023-06-29T05:19:23.475Z,1827.00
2023-06-29T05:20:23.460Z,1830.00
2023-06-29T05:21:23.485Z,1813.00
2023-06-29T05:22:23.481Z,1810.00
2023-06-29T05:23:23.538Z,1788.00
2023-06-29T05:24:23.575Z,1797.00
2023-06-29T05:25:23.540Z,1807.00
2023-06-29T05:26:23.582Z,1830.00
2023-06-29T05:27:23.603Z,1842.00
2023-06-29T05:28:23.665Z,1857.00
2023-06-29T05:29:23.629Z,1879.00
2023-06-29T05:30:23.648Z,1870.00
2023-06-29T05:31:23.750Z,1862.00
2023-06-29T05:32:24.437Z,1872.00
2023-06-29T05:33:23.788Z,1856.00
2023-06-29T05:34:23.760Z,1829.00
2023-06-29T05:35:23.774Z,1801.00
2023-06-29T05:36:23.780Z,1770.00
2023-06-29T05:37:23.797Z,1756.00
2023-06-29T05:38:23.834Z,1700.00
2023-06-29T05:39:23.872Z,1646.00
2023-06-29T05:40:23.922Z,1625.00
2023-06-29T05:41:23.958Z,1562.00
2023-06-29T05:42:24.012Z,1499.00
2023-06-29T05:43:24.022Z,1452.00
2023-06-29T05:44:24.053Z,1370.00
2023-06-29T05:45:24.094Z,1316.00
2023-06-29T05:46:24.162Z,1250.00
2023-06-29T05:47:24.165Z,1190.00
2023-06-29T05:48:24.184Z,1140.00
2023-06-29T05:49:24.263Z,1141.00
2023-06-29T05:50:24.279Z,1146.00
2023-06-29T05:51:24.397Z,1173.00
2023-06-29T05:52:24.400Z,1210.00
2023-06-29T05:53:24.448Z,1176.00
2023-06-29T05:54:24.558Z,1168.00
2023-06-29T05:55:24.542Z,1155.00
2023-06-29T05:56:24.585Z,1179.00
2023-06-29T05:57:24.626Z,1173.00
2023-06-29T05:58:24.710Z,1197.00
2023-06-29T05:59:24.709Z,1233.00
2023-06-29T06:00:24.958Z,1282.00
2023-06-29T06:01:24.775Z,1289.00
2023-06-29T06:02:24.818Z,1306.00
2023-06-29T06:03:24.864Z,1325.00
2023-06-29T06:04:24.862Z,1322.00
2023-06-29T06:05:24.904Z,1319.00
2023-06-29T06:06:24.954Z,1338.00
2023-06-29T06:07:25.098Z,1363.00
2023-06-29T06:08:25.086Z,1372.00
2023-06-29T06:09:25.163Z,1371.00
2023-06-29T06:10:25.202Z,1350.00
2023-06-29T06:11:25.470Z,1363.00
2023-06-29T06:12:25.296Z,1350.00
2023-06-29T06:13:25.347Z,1328.00
2023-06-29T06:14:25.397Z,1338.00
2023-06-29T06:15:25.449Z,1354.00
2023-06-29T06:16:25.511Z,1363.00
2023-06-29T06:17:25.629Z,1375.00
2023-06-29T06:18:25.532Z,1402.00
2023-06-29T06:19:25.542Z,1424.00
2023-06-29T06:20:25.578Z,1417.00
2023-06-29T06:21:25.753Z,1450.00
2023-06-29T06:22:25.587Z,1460.00
2023-06-29T06:23:26.334Z,1457.00
2023-06-29T06:24:25.621Z,1468.00
2023-06-29T06:25:25.627Z,1433.00
2023-06-29T06:26:25.673Z,1429.00
2023-06-29T06:27:25.758Z,1409.00
2023-06-29T06:28:25.691Z,1419.00
2023-06-29T06:29:25.712Z,1390.00
2023-06-29T06:30:25.785Z,1371.00
2023-06-29T06:31:34.175Z,1391.00
2023-06-29T06:32:26.915Z,1358.00
2023-06-29T06:33:25.802Z,1317.00
2023-06-29T06:34:26.456Z,1260.00
2023-06-29T06:35:25.795Z,1233.00
2023-06-29T06:36:25.798Z,1187.00
2023-06-29T06:37:25.801Z,1161.00
2023-06-29T06:38:34.418Z,1123.00
2023-06-29T06:39:27.420Z,1105.00
2023-06-29T06:40:25.867Z,1060.00
2023-06-29T06:41:25.893Z,1052.00
2023-06-29T06:42:25.807Z,1035.00
2023-06-29T06:43:25.812Z,992.00
2023-06-29T06:44:26.424Z,953.00
2023-06-29T06:45:26.931Z,942.00
2023-06-29T06:46:26.010Z,922.00
2023-06-29T06:47:26.011Z,872.00
2023-06-29T06:48:26.075Z,856.00
2023-06-29T06:49:26.181Z,821.00
2023-06-29T06:50:26.185Z,796.00
2023-06-29T06:51:26.216Z,767.00
2023-06-29T06:52:26.260Z,746.00
2023-06-29T06:53:26.321Z,711.00
2023-06-29T06:54:26.914Z,679.00
2023-06-29T06:55:26.435Z,653.00
2023-06-29T06:56:26.512Z,638.00
2023-06-29T06:57:26.570Z,627.00
2023-06-29T06:58:26.642Z,617.00
2023-06-29T06:59:26.712Z,611.00
2023-06-29T07:00:26.833Z,602.00
2023-06-29T07:01:26.868Z,598.00
2023-06-29T07:02:28.012Z,601.00
2023-06-29T07:03:27.198Z,601.00
2023-06-29T07:04:26.991Z,614.00
2023-06-29T07:05:27.915Z,626.00
2023-06-29T07:06:27.114Z,641.00
2023-06-29T07:07:27.163Z,656.00
2023-06-29T07:08:27.244Z,670.00
2023-06-29T07:09:27.217Z,678.00
2023-06-29T07:10:27.322Z,650.00
2023-06-29T07:11:27.308Z,626.00
2023-06-29T07:12:27.368Z,614.00
2023-06-29T07:13:27.418Z,604.00
2023-06-29T07:14:27.499Z,588.00
2023-06-29T07:15:27.552Z,590.00
2023-06-29T07:16:27.632Z,595.00
2023-06-29T07:17:27.743Z,601.00
2023-06-29T07:18:27.689Z,611.00
2023-06-29T07:21:27.697Z,649.00
2023-06-29T07:24:27.683Z,651.00
2023-06-29T07:25:27.759Z,660.00
2023-06-29T07:26:27.705Z,692.00
2023-06-29T07:27:27.687Z,755.00
2023-06-29T07:28:27.740Z,864.00
2023-06-29T07:29:27.680Z,910.00
2023-06-29T07:30:27.807Z,939.00
2023-06-29T07:31:27.809Z,966.00
2023-06-29T07:32:27.684Z,999.00
2023-06-29T07:33:27.921Z,1039.00
2023-06-29T07:34:27.656Z,1060.00
2023-06-29T07:35:27.656Z,1073.00
2023-06-29T07:36:27.640Z,1116.00
2023-06-29T07:37:27.641Z,1150.00
2023-06-29T07:38:27.628Z,1160.00
2023-06-29T07:39:27.628Z,1184.00
2023-06-29T07:40:27.625Z,1211.00
2023-06-29T07:41:28.530Z,1207.00
2023-06-29T07:42:38.805Z,1241.00
2023-06-29T07:43:28.610Z,1242.00
2023-06-29T07:44:27.592Z,1248.00
2023-06-29T07:45:27.658Z,1261.00
2023-06-29T07:46:27.583Z,1282.00
2023-06-29T07:47:27.660Z,1329.00
2023-06-29T07:48:27.669Z,1352.00
2023-06-29T07:49:27.563Z,1379.00
2023-06-29T07:50:27.556Z,1389.00
2023-06-29T07:51:27.552Z,1413.00
2023-06-29T07:52:27.547Z,1425.00
2023-06-29T07:53:27.531Z,1450.00
2023-06-29T07:54:27.519Z,1471.00
2023-06-29T07:55:27.517Z,1493.00
2023-06-29T07:58:39.179Z,1509.00
2023-06-29T07:59:27.499Z,1510.00
2023-06-29T08:00:27.483Z,1518.00
2023-06-29T08:01:27.489Z,1535.00
2023-06-29T08:02:27.509Z,1551.00
2023-06-29T08:03:27.483Z,1596.00
2023-06-29T08:07:27.521Z,1606.00
2023-06-29T08:08:27.512Z,1614.00
2023-06-29T08:09:28.419Z,1630.00
2023-06-29T08:10:27.932Z,1650.00
2023-06-29T08:11:27.413Z,1682.00
2023-06-29T08:12:27.396Z,1686.00
2023-06-29T08:13:27.388Z,1685.00
2023-06-29T08:14:27.378Z,1687.00
2023-06-29T08:15:27.377Z,1697.00
2023-06-29T08:16:27.431Z,1702.00
2023-06-29T08:17:30.005Z,1728.00
2023-06-29T08:18:27.631Z,1712.00
2023-06-29T08:19:27.601Z,1703.00
2023-06-29T08:20:27.582Z,1681.00
2023-06-29T08:21:27.578Z,1665.00
2023-06-29T08:22:27.597Z,1647.00
2023-06-29T08:23:27.604Z,1640.00
2023-06-29T08:24:27.607Z,1640.00
2023-06-29T08:25:27.599Z,1640.00
2023-06-29T08:26:27.593Z,1615.00
2023-06-29T08:27:27.593Z,1612.00
2023-06-29T08:28:27.583Z,1612.00
2023-06-29T08:29:27.580Z,1611.00
2023-06-29T08:30:27.566Z,1629.00
2023-06-29T08:31:27.610Z,1624.00
2023-06-29T08:32:27.666Z,1608.00
2023-06-29T08:33:27.614Z,1593.00
2023-06-29T08:34:28.368Z,1576.00
2023-06-29T08:35:27.664Z,1578.00
2023-06-29T08:36:27.554Z,1579.00
2023-06-29T08:37:27.525Z,1557.00
2023-06-29T08:38:27.530Z,1539.00
2023-06-29T08:39:27.520Z,1529.00
2023-06-29T08:40:27.523Z,1515.00
2023-06-29T08:41:27.517Z,1455.00
2023-06-29T08:42:28.444Z,1408.00
2023-06-29T08:43:27.513Z,1344.00
2023-06-29T08:44:27.533Z,1356.00
2023-06-29T08:45:27.500Z,1341.00
2023-06-29T08:46:28.554Z,1334.00
2023-06-29T08:47:27.516Z,1328.00
2023-06-29T08:48:27.489Z,1291.00
2023-06-29T08:49:27.471Z,1219.00
2023-06-29T08:50:27.485Z,1173.00
2023-06-29T08:51:27.431Z,1112.00
2023-06-29T08:52:27.423Z,1064.00
2023-06-29T08:53:28.378Z,1007.00
2023-06-29T08:54:28.758Z,983.00
2023-06-29T08:55:27.383Z,938.00
2023-06-29T08:56:27.381Z,876.00
2023-06-29T08:57:27.369Z,799.00
2023-06-29T08:58:27.356Z,714.00
2023-06-29T08:59:27.341Z,654.00
2023-06-29T09:00:29.509Z,648.00
2023-06-29T09:01:27.389Z,639.00
2023-06-29T09:02:27.467Z,634.00
2023-06-29T09:03:27.654Z,610.00
2023-06-29T09:04:27.473Z,588.00
2023-06-29T09:05:28.371Z,587.00
2023-06-29T09:06:29.918Z,579.00
2023-06-29T09:07:27.662Z,577.00
2023-06-29T09:08:27.998Z,579.00
2023-06-29T09:09:27.510Z,594.00
2023-06-29T09:10:27.510Z,591.00
2023-06-29T09:11:27.516Z,597.00
2023-06-29T09:12:27.493Z,588.00
2023-06-29T09:13:27.497Z,577.00
2023-06-29T09:14:27.565Z,574.00
2023-06-29T09:15:27.546Z,566.00
2023-06-29T09:16:27.549Z,563.00
2023-06-29T09:17:27.570Z,569.00
2023-06-29T09:18:29.052Z,576.00
2023-06-29T09:19:27.588Z,608.00
2023-06-29T09:20:27.595Z,607.00
2023-06-29T09:21:27.635Z,639.00
2023-06-29T09:22:27.685Z,664.00
2023-06-29T09:23:27.741Z,748.00
2023-06-29T09:24:27.766Z,832.00
2023-06-29T09:25:34.130Z,917.00
2023-06-29T09:26:28.859Z,919.00
2023-06-29T09:27:27.793Z,937.00
2023-06-29T09:28:27.798Z,981.00
2023-06-29T09:29:27.771Z,1067.00
2023-06-29T09:30:27.750Z,1200.00
2023-06-29T09:31:27.799Z,1223.00
2023-06-29T09:32:27.735Z,1259.00
2023-06-29T09:33:27.732Z,1281.00
2023-06-29T09:34:27.713Z,1286.00
2023-06-29T09:35:27.737Z,1298.00
2023-06-29T09:36:27.691Z,1300.00
2023-06-29T09:37:27.688Z,1313.00
2023-06-29T09:38:27.681Z,1332.00
2023-06-29T09:39:27.718Z,1341.00
2023-06-29T09:40:27.650Z,1341.00
2023-06-29T09:41:27.637Z,1344.00
2023-06-29T09:42:28.481Z,1355.00
2023-06-29T09:43:27.662Z,1373.00
2023-06-29T09:44:27.592Z,1373.00
2023-06-29T09:45:27.574Z,1425.00
2023-06-29T09:46:29.655Z,1434.00
2023-06-29T09:49:27.572Z,1476.00
2023-06-29T09:50:27.635Z,1481.00
2023-06-29T09:51:27.549Z,1491.00
2023-06-29T09:52:27.515Z,1517.00
2023-06-29T09:53:27.479Z,1547.00
2023-06-29T09:54:27.466Z,1558.00
2023-06-29T09:55:27.457Z,1576.00
2023-06-29T09:56:27.455Z,1570.00
2023-06-29T09:57:27.441Z,1560.00
2023-06-29T09:58:27.438Z,1556.00
2023-06-29T09:59:27.435Z,1558.00
2023-06-29T10:00:27.405Z,1564.00
2023-06-29T10:01:27.422Z,1584.00
2023-06-29T10:02:27.494Z,1586.00
2023-06-29T10:03:27.425Z,1579.00
2023-06-29T10:04:27.404Z,1579.00
2023-06-29T10:05:27.353Z,1595.00
2023-06-29T10:06:27.347Z,1597.00
2023-06-29T10:07:27.536Z,1601.00
2023-06-29T10:08:27.307Z,1608.00
2023-06-29T10:09:27.317Z,1625.00
2023-06-29T10:10:27.285Z,1644.00
2023-06-29T10:11:27.710Z,1644.00
2023-06-29T10:12:27.263Z,1645.00
2023-06-29T10:13:27.251Z,1646.00
2023-06-29T10:14:27.284Z,1638.00
2023-06-29T10:15:27.229Z,1641.00
2023-06-29T10:16:27.306Z,1634.00
2023-06-29T10:17:28.003Z,1636.00
2023-06-29T10:18:27.457Z,1654.00
2023-06-29T10:19:27.206Z,1665.00
2023-06-29T10:20:27.205Z,1676.00
2023-06-29T10:21:27.168Z,1663.00
2023-06-29T10:22:27.149Z,1692.00
2023-06-29T10:23:27.323Z,1699.00
2023-06-29T10:24:27.133Z,1714.00
2023-06-29T10:25:27.100Z,1742.00
2023-06-29T10:26:27.097Z,1747.00
2023-06-29T10:27:27.111Z,1757.00
2023-06-29T10:28:27.068Z,1769.00
2023-06-29T10:29:27.081Z,1785.00
2023-06-29T10:30:27.060Z,1806.00
2023-06-29T10:31:27.175Z,1809.00
2023-06-29T10:32:27.044Z,1811.00
2023-06-29T10:33:27.017Z,1821.00
2023-06-29T10:34:27.038Z,1831.00
2023-06-29T10:35:27.284Z,1838.00
2023-06-29T10:36:27.035Z,1852.00
2023-06-29T10:37:26.961Z,1855.00
2023-06-29T10:38:26.957Z,1864.00
2023-06-29T10:39:26.939Z,1868.00
2023-06-29T10:40:26.936Z,1887.00
2023-06-29T10:41:26.929Z,1889.00
2023-06-29T10:42:26.908Z,1915.00
2023-06-29T10:43:26.897Z,1913.00
2023-06-29T10:44:26.981Z,1910.00
2023-06-29T10:45:26.869Z,1921.00
2023-06-29T10:46:26.904Z,1931.00
2023-06-29T10:47:26.879Z,1933.00
2023-06-29T10:48:47.007Z,1939.00
2023-06-29T10:49:27.858Z,1940.00
2023-06-29T10:50:26.817Z,1941.00
2023-06-29T10:51:26.811Z,1948.00
2023-06-29T10:52:26.885Z,1963.00
2023-06-29T10:53:28.366Z,1976.00
2023-06-29T10:54:26.867Z,1994.00
2023-06-29T10:55:26.810Z,1999.00
2023-06-29T10:56:26.779Z,2004.00
2023-06-29T10:57:26.762Z,2015.00
2023-06-29T10:58:26.809Z,2025.00
2023-06-29T10:59:26.745Z,2039.00
2023-06-29T11:00:26.734Z,2049.00
2023-06-29T11:01:26.769Z,2044.00
2023-06-29T11:02:26.783Z,2072.00
2023-06-29T11:03:26.686Z,2090.00
2023-06-29T11:04:26.704Z,2105.00
2023-06-29T11:05:26.631Z,2134.00
2023-06-29T11:06:34.271Z,2146.00
2023-06-29T11:07:27.812Z,2147.00
2023-06-29T11:08:26.592Z,2158.00
2023-06-29T11:09:26.591Z,2181.00
2023-06-29T11:10:26.557Z,2208.00
2023-06-29T11:11:26.542Z,2269.00
2023-06-29T11:12:26.537Z,2303.00
2023-06-29T11:13:26.531Z,2332.00
2023-06-29T11:14:26.511Z,2326.00
2023-06-29T11:15:26.496Z,2347.00
2023-06-29T11:16:26.557Z,2348.00
2023-06-29T11:17:26.632Z,2368.00
2023-06-29T11:18:26.579Z,2374.00
2023-06-29T11:19:26.588Z,2372.00
2023-06-29T11:20:26.623Z,2395.00
2023-06-29T11:21:26.622Z,2385.00
2023-06-29T11:22:26.640Z,2397.00
2023-06-29T11:23:26.649Z,2393.00
2023-06-29T11:24:26.626Z,2403.00
2023-06-29T11:25:26.661Z,2403.00
2023-06-29T11:26:26.618Z,2395.00
2023-06-29T11:27:26.641Z,2392.00
2023-06-29T11:28:26.636Z,2395.00
2023-06-29T11:29:27.457Z,2399.00
2023-06-29T11:30:26.696Z,2396.00
2023-06-29T11:31:26.713Z,2378.00
2023-06-29T11:32:26.628Z,2382.00
2023-06-29T11:33:34.476Z,2379.00
2023-06-29T11:34:27.592Z,2380.00
2023-06-29T11:35:26.703Z,2382.00
2023-06-29T11:36:26.570Z,2386.00
2023-06-29T11:37:26.562Z,2393.00
2023-06-29T11:38:26.569Z,2397.00
2023-06-29T11:39:26.579Z,2379.00
2023-06-29T11:40:26.532Z,2372.00
2023-06-29T11:41:26.519Z,2362.00
2023-06-29T11:42:26.610Z,2337.00
2023-06-29T11:44:26.527Z,2348.00
2023-06-29T11:45:26.473Z,2348.00
2023-06-29T11:46:26.524Z,2360.00
2023-06-29T11:47:33.278Z,2366.00
2023-06-29T11:48:27.434Z,2367.00
2023-06-29T11:49:26.424Z,2372.00
2023-06-29T11:50:26.427Z,2375.00
2023-06-29T11:51:26.382Z,2328.00
2023-06-29T11:52:26.373Z,2193.00
2023-06-29T11:53:26.440Z,2105.00
2023-06-29T11:54:26.955Z,2025.00
2023-06-29T11:55:26.327Z,1985.00
2023-06-29T11:56:26.306Z,1958.00
2023-06-29T11:57:26.290Z,1894.00
2023-06-29T11:58:26.287Z,1744.00
2023-06-29T11:59:26.271Z,1557.00
2023-06-29T12:00:26.306Z,1463.00
2023-06-29T12:02:26.260Z,1329.00
2023-06-29T12:03:26.388Z,1258.00
2023-06-29T12:04:26.267Z,1253.00
2023-06-29T12:05:26.201Z,1285.00
2023-06-29T12:06:26.201Z,1422.00
2023-06-29T12:07:27.324Z,1477.00
2023-06-29T12:08:26.287Z,1457.00
2023-06-29T12:09:26.171Z,1430.00
2023-06-29T12:10:26.170Z,1414.00
2023-06-29T12:11:26.176Z,1352.00
2023-06-29T12:12:26.149Z,1320.00
2023-06-29T12:13:26.202Z,1313.00
2023-06-29T12:14:26.202Z,1251.00
2023-06-29T12:15:26.240Z,1231.00
2023-06-29T12:18:26.314Z,1142.00
2023-06-29T12:19:26.313Z,1105.00
2023-06-29T12:20:28.138Z,1057.00
2023-06-29T12:21:26.336Z,1053.00
2023-06-29T12:22:26.178Z,1023.00
2023-06-29T12:23:26.228Z,998.00